sensor_id;sensor_type;location;lat;lon;timestamp;pressure;altitude;pressure_sealevel;temperature;humidity
44079;BME280;29744;49.078;12.878;2024-02-28T00:04:43;96164.25;;;13.84;37.78
44079;BME280;29744;49.078;12.878;2024-02-28T00:09:44;96160.28;;;13.82;37.71
44079;BME280;29744;49.078;12.878;2024-02-28T00:14:44;96150.63;;;13.81;38.04
44079;BME280;29744;49.078;12.878;2024-02-28T00:19:44;96157.59;;;13.82;38.19
44079;BME280;29744;49.078;12.878;2024-02-28T00:24:45;96166.81;;;13.81;37.69
44079;BME280;29744;49.078;12.878;2024-02-28T00:29:45;96172.50;;;13.79;38.25
44079;BME280;29744;49.078;12.878;2024-02-28T00:34:46;96171.69;;;13.79;37.87
44079;BME280;29744;49.078;12.878;2024-02-28T00:39:47;96174.41;;;13.79;38.14
44079;BME280;29744;49.078;12.878;2024-02-28T00:44:47;96173.94;;;13.77;38.05
44079;BME280;29744;49.078;12.878;2024-02-28T00:49:47;96177.75;;;13.76;37.83
44079;BME280;29744;49.078;12.878;2024-02-28T00:54:48;96188.53;;;13.76;38.19
44079;BME280;29744;49.078;12.878;2024-02-28T00:59:48;96182.66;;;13.74;37.79
44079;BME280;29744;49.078;12.878;2024-02-28T01:04:48;96184.56;;;13.73;38.24
44079;BME280;29744;49.078;12.878;2024-02-28T01:09:49;96188.06;;;13.74;38.12
44079;BME280;29744;49.078;12.878;2024-02-28T01:14:49;96191.88;;;13.73;37.92
44079;BME280;29744;49.078;12.878;2024-02-28T01:19:49;96194.88;;;13.71;38.17
44079;BME280;29744;49.078;12.878;2024-02-28T01:24:50;96192.19;;;13.71;37.95
44079;BME280;29744;49.078;12.878;2024-02-28T01:29:50;96197.56;;;13.71;38.14
44079;BME280;29744;49.078;12.878;2024-02-28T01:34:50;96209.47;;;13.70;38.12
44079;BME280;29744;49.078;12.878;2024-02-28T01:39:51;96205.97;;;13.70;37.87
44079;BME280;29744;49.078;12.878;2024-02-28T01:44:51;96211.69;;;13.68;38.17
44079;BME280;29744;49.078;12.878;2024-02-28T01:49:51;96218.19;;;13.67;37.78
44079;BME280;29744;49.078;12.878;2024-02-28T01:54:54;96221.69;;;13.68;37.82
44079;BME280;29744;49.078;12.878;2024-02-28T01:59:55;96220.91;;;13.67;38.12
44079;BME280;29744;49.078;12.878;2024-02-28T02:04:56;96222.00;;;13.66;37.82
44079;BME280;29744;49.078;12.878;2024-02-28T02:09:58;96228.50;;;13.65;37.76
44079;BME280;29744;49.078;12.878;2024-02-28T02:14:58;96231.53;;;13.64;37.78
44079;BME280;29744;49.078;12.878;2024-02-28T02:19:58;96244.22;;;13.63;37.94
44079;BME280;29744;49.078;12.878;2024-02-28T02:24:59;96255.31;;;13.62;38.30
44079;BME280;29744;49.078;12.878;2024-02-28T02:29:59;96266.09;;;13.62;38.38
44079;BME280;29744;49.078;12.878;2024-02-28T02:34:59;96263.72;;;13.60;38.17
44079;BME280;29744;49.078;12.878;2024-02-28T02:40:01;96273.38;;;13.61;38.43
44079;BME280;29744;49.078;12.878;2024-02-28T02:45:01;96287.16;;;13.60;37.95
44079;BME280;29744;49.078;12.878;2024-02-28T02:50:02;96290.19;;;13.58;38.45
44079;BME280;29744;49.078;12.878;2024-02-28T02:55:02;96301.75;;;13.59;37.88
44079;BME280;29744;49.078;12.878;2024-02-28T03:00:03;96292.09;;;13.58;38.40
44079;BME280;29744;49.078;12.878;2024-02-28T03:05:04;96292.09;;;13.58;37.92
44079;BME280;29744;49.078;12.878;2024-02-28T03:10:05;96304.78;;;13.57;38.38
44079;BME280;29744;49.078;12.878;2024-02-28T03:15:06;96310.16;;;13.57;38.33
44079;BME280;29744;49.078;12.878;2024-02-28T03:20:06;96324.75;;;13.56;38.27
44079;BME280;29744;49.078;12.878;2024-02-28T03:25:08;96323.94;;;13.55;38.16
44079;BME280;29744;49.078;12.878;2024-02-28T03:30:09;96332.34;;;13.54;38.51
44079;BME280;29744;49.078;12.878;2024-02-28T03:35:09;96333.94;;;13.55;38.42
44079;BME280;29744;49.078;12.878;2024-02-28T03:40:10;96326.97;;;13.54;38.15
44079;BME280;29744;49.078;12.878;2024-02-28T03:45:10;96327.28;;;13.52;38.23
44079;BME280;29744;49.078;12.878;2024-02-28T03:50:10;96332.66;;;13.52;37.89
44079;BME280;29744;49.078;12.878;2024-02-28T03:55:11;96337.28;;;13.52;38.44
44079;BME280;29744;49.078;12.878;2024-02-28T04:00:11;96345.66;;;13.50;38.33
44079;BME280;29744;49.078;12.878;2024-02-28T04:05:13;96349.16;;;13.51;38.04
44079;BME280;29744;49.078;12.878;2024-02-28T04:10:13;96348.38;;;13.50;38.41
44079;BME280;29744;49.078;12.878;2024-02-28T04:15:15;96352.97;;;13.50;37.99
44079;BME280;29744;49.078;12.878;2024-02-28T04:20:15;96354.88;;;13.49;38.06
44079;BME280;29744;49.078;12.878;2024-02-28T04:25:16;96354.06;;;13.49;38.13
44079;BME280;29744;49.078;12.878;2024-02-28T04:30:16;96350.59;;;13.48;38.42
44079;BME280;29744;49.078;12.878;2024-02-28T04:35:16;96346.31;;;13.47;38.26
44079;BME280;29744;49.078;12.878;2024-02-28T04:40:18;96355.97;;;13.48;38.19
44079;BME280;29744;49.078;12.878;2024-02-28T04:45:19;96352.16;;;13.49;37.98
44079;BME280;29744;49.078;12.878;2024-02-28T04:50:19;96351.53;;;13.52;38.16
44079;BME280;29744;49.078;12.878;2024-02-28T04:55:19;96350.56;;;13.57;38.35
44079;BME280;29744;49.078;12.878;2024-02-28T05:00:19;96358.19;;;13.64;38.12
44079;BME280;29744;49.078;12.878;2024-02-28T05:05:20;96358.47;;;13.71;38.06
44079;BME280;29744;49.078;12.878;2024-02-28T05:10:20;96361.16;;;13.79;38.01
44079;BME280;29744;49.078;12.878;2024-02-28T05:15:20;96370.84;;;13.89;38.44
44079;BME280;29744;49.078;12.878;2024-02-28T05:20:21;96388.25;;;14.00;38.25
44079;BME280;29744;49.078;12.878;2024-02-28T05:25:22;96392.53;;;14.10;38.17
44079;BME280;29744;49.078;12.878;2024-02-28T05:30:22;96387.56;;;14.21;37.84
44079;BME280;29744;49.078;12.878;2024-02-28T05:35:22;96396.59;;;14.33;37.75
44079;BME280;29744;49.078;12.878;2024-02-28T05:40:23;96397.38;;;14.42;37.67
44079;BME280;29744;49.078;12.878;2024-02-28T05:45:23;96413.06;;;14.49;38.06
44079;BME280;29744;49.078;12.878;2024-02-28T05:50:24;96426.84;;;14.56;37.78
44079;BME280;29744;49.078;12.878;2024-02-28T06:00:26;96442.34;;;14.68;37.52
44079;BME280;29744;49.078;12.878;2024-02-28T06:05:31;96455.19;;;14.71;37.52
44079;BME280;29744;49.078;12.878;2024-02-28T06:10:31;96464.56;;;14.73;37.19
44079;BME280;29744;49.078;12.878;2024-02-28T06:15:32;96475.81;;;14.75;37.48
44079;BME280;29744;49.078;12.878;2024-02-28T06:20:32;96477.41;;;14.76;37.55
44079;BME280;29744;49.078;12.878;2024-02-28T06:25:32;96486.28;;;14.77;37.52
44079;BME280;29744;49.078;12.878;2024-02-28T06:30:34;96499.47;;;14.78;37.08
44079;BME280;29744;49.078;12.878;2024-02-28T06:35:34;96498.69;;;14.78;37.20
44079;BME280;29744;49.078;12.878;2024-02-28T06:40:35;96512.97;;;14.78;37.38
44079;BME280;29744;49.078;12.878;2024-02-28T06:45:35;96519.47;;;14.77;37.08
44079;BME280;29744;49.078;12.878;2024-02-28T06:50:36;96526.00;;;14.76;36.99
44079;BME280;29744;49.078;12.878;2024-02-28T06:55:37;96532.50;;;14.75;37.49
44079;BME280;29744;49.078;12.878;2024-02-28T07:00:37;96529.34;;;14.73;37.38
44079;BME280;29744;49.078;12.878;2024-02-28T07:05:37;96545.53;;;14.73;37.28
44079;BME280;29744;49.078;12.878;2024-02-28T07:10:38;96546.97;;;14.71;37.41
44079;BME280;29744;49.078;12.878;2024-02-28T07:15:43;96551.56;;;14.70;37.07
44079;BME280;29744;49.078;12.878;2024-02-28T07:20:44;96551.09;;;14.68;37.26
44079;BME280;29744;49.078;12.878;2024-02-28T07:25:44;96556.03;;;14.66;37.37
44079;BME280;29744;49.078;12.878;2024-02-28T07:30:44;96545.88;;;14.63;37.36
44079;BME280;29744;49.078;12.878;2024-02-28T07:35:51;96545.88;;;14.63;37.12
44079;BME280;29744;49.078;12.878;2024-02-28T07:40:52;96553.81;;;14.60;37.14
44079;BME280;29744;49.078;12.878;2024-02-28T07:45:52;96549.22;;;14.60;36.93
44079;BME280;29744;49.078;12.878;2024-02-28T07:50:53;96562.25;;;14.58;36.87
44079;BME280;29744;49.078;12.878;2024-02-28T07:55:53;96558.75;;;14.58;36.94
44079;BME280;29744;49.078;12.878;2024-02-28T08:00:53;96559.41;;;14.55;37.15
44079;BME280;29744;49.078;12.878;2024-02-28T08:05:54;96564.00;;;14.54;36.86
44079;BME280;29744;49.078;12.878;2024-02-28T08:10:54;96560.81;;;14.52;37.41
44079;BME280;29744;49.078;12.878;2024-02-28T08:15:55;96561.94;;;14.51;37.29
44079;BME280;29744;49.078;12.878;2024-02-28T08:20:56;96556.06;;;14.49;37.20
44079;BME280;29744;49.078;12.878;2024-02-28T08:25:59;96572.59;;;14.47;37.17
44079;BME280;29744;49.078;12.878;2024-02-28T08:30:59;96580.19;;;14.45;37.04
44079;BME280;29744;49.078;12.878;2024-02-28T08:35:59;96588.63;;;14.44;37.43
44079;BME280;29744;49.078;12.878;2024-02-28T08:41:00;96590.38;;;14.40;37.50
44079;BME280;29744;49.078;12.878;2024-02-28T08:46:00;96588.47;;;14.40;37.31
44079;BME280;29744;49.078;12.878;2024-02-28T08:51:00;96588.31;;;14.37;37.32
44079;BME280;29744;49.078;12.878;2024-02-28T08:56:01;96586.72;;;14.36;37.36
44079;BME280;29744;49.078;12.878;2024-02-28T09:01:02;96590.53;;;14.35;37.36
44079;BME280;29744;49.078;12.878;2024-02-28T09:06:02;96590.06;;;14.33;37.40
44079;BME280;29744;49.078;12.878;2024-02-28T09:11:03;96595.75;;;14.31;37.07
44079;BME280;29744;49.078;12.878;2024-02-28T09:16:05;96594.50;;;14.29;37.16
44079;BME280;29744;49.078;12.878;2024-02-28T09:21:07;96601.00;;;14.28;37.57
44079;BME280;29744;49.078;12.878;2024-02-28T09:26:08;96603.22;;;14.26;37.15
44079;BME280;29744;49.078;12.878;2024-02-28T09:31:08;96608.94;;;14.24;37.38
44079;BME280;29744;49.078;12.878;2024-02-28T09:36:09;96612.75;;;14.23;37.42
44079;BME280;29744;49.078;12.878;2024-02-28T09:41:14;96619.53;;;14.21;37.46
44079;BME280;29744;49.078;12.878;2024-02-28T09:46:15;96623.34;;;14.19;37.27
44079;BME280;29744;49.078;12.878;2024-02-28T09:51:17;96625.56;;;14.17;37.43
44079;BME280;29744;49.078;12.878;2024-02-28T09:56:18;96633.97;;;14.16;37.72
44079;BME280;29744;49.078;12.878;2024-02-28T10:01:21;96636.97;;;14.14;37.64
44079;BME280;29744;49.078;12.878;2024-02-28T10:06:22;96642.69;;;14.13;37.74
44079;BME280;29744;49.078;12.878;2024-02-28T10:11:23;96655.38;;;14.12;37.30
44079;BME280;29744;49.078;12.878;2024-02-28T10:16:24;96656.81;;;14.10;37.93
44079;BME280;29744;49.078;12.878;2024-02-28T10:21:24;96666.81;;;14.09;37.67
44079;BME280;29744;49.078;12.878;2024-02-28T10:26:26;96663.63;;;14.07;37.75
44079;BME280;29744;49.078;12.878;2024-02-28T10:31:26;96668.53;;;14.05;37.61
44079;BME280;29744;49.078;12.878;2024-02-28T10:36:30;96675.03;;;14.04;37.63
44079;BME280;29744;49.078;12.878;2024-02-28T10:41:32;96675.66;;;14.01;37.85
44079;BME280;29744;49.078;12.878;2024-02-28T10:46:33;96686.44;;;14.01;37.69
44079;BME280;29744;49.078;12.878;2024-02-28T10:51:36;96677.56;;;14.01;37.89
44079;BME280;29744;49.078;12.878;2024-02-28T10:56:40;96673.28;;;14.00;37.97
44079;BME280;29744;49.078;12.878;2024-02-28T11:01:43;96677.88;;;13.99;37.59
44079;BME280;29744;49.078;12.878;2024-02-28T11:06:54;96686.59;;;13.96;37.86
44079;BME280;29744;49.078;12.878;2024-02-28T11:11:55;96685.00;;;13.95;37.67
44079;BME280;29744;49.078;12.878;2024-02-28T11:17:00;96684.22;;;13.95;37.67
44079;BME280;29744;49.078;12.878;2024-02-28T11:22:01;96690.72;;;13.94;37.62
44079;BME280;29744;49.078;12.878;2024-02-28T11:27:01;96688.34;;;13.92;37.88
44079;BME280;29744;49.078;12.878;2024-02-28T11:32:06;96693.72;;;13.92;37.61
44079;BME280;29744;49.078;12.878;2024-02-28T11:37:08;96691.03;;;13.92;37.74
44079;BME280;29744;49.078;12.878;2024-02-28T11:42:13;96698.63;;;13.90;38.10
44079;BME280;29744;49.078;12.878;2024-02-28T11:47:14;96701.66;;;13.89;37.65
44079;BME280;29744;49.078;12.878;2024-02-28T11:52:14;96708.94;;;13.88;37.56
44079;BME280;29744;49.078;12.878;2024-02-28T11:57:15;96704.66;;;13.87;37.96
44079;BME280;29744;49.078;12.878;2024-02-28T12:02:17;96703.84;;;13.86;38.19
44079;BME280;29744;49.078;12.878;2024-02-28T12:07:18;96705.75;;;13.86;37.59
44079;BME280;29744;49.078;12.878;2024-02-28T12:12:19;96709.56;;;13.85;37.78
44079;BME280;29744;49.078;12.878;2024-02-28T12:17:19;96707.19;;;13.83;38.29
44079;BME280;29744;49.078;12.878;2024-02-28T12:22:20;96714.47;;;13.83;37.78
44079;BME280;29744;49.078;12.878;2024-02-28T12:27:21;96717.16;;;13.83;37.89
44079;BME280;29744;49.078;12.878;2024-02-28T12:32:21;96705.91;;;13.81;37.87
44079;BME280;29744;49.078;12.878;2024-02-28T12:37:21;96708.59;;;13.81;37.92
44079;BME280;29744;49.078;12.878;2024-02-28T12:42:22;96713.19;;;13.80;37.67
44079;BME280;29744;49.078;12.878;2024-02-28T12:47:22;96706.19;;;13.79;37.68
44079;BME280;29744;49.078;12.878;2024-02-28T12:52:23;96703.50;;;13.79;38.01
44079;BME280;29744;49.078;12.878;2024-02-28T12:57:24;96703.81;;;13.78;38.24
44079;BME280;29744;49.078;12.878;2024-02-28T13:02:24;96707.28;;;13.78;37.97
44079;BME280;29744;49.078;12.878;2024-02-28T13:07:25;96696.81;;;13.77;38.21
44079;BME280;29744;49.078;12.878;2024-02-28T13:12:25;96691.75;;;13.75;38.30
44079;BME280;29744;49.078;12.878;2024-02-28T13:17:25;96697.13;;;13.75;38.09
44079;BME280;29744;49.078;12.878;2024-02-28T13:22:26;96702.53;;;13.75;38.34
44079;BME280;29744;49.078;12.878;2024-02-28T13:27:26;96700.94;;;13.74;38.39
44079;BME280;29744;49.078;12.878;2024-02-28T13:32:27;96702.84;;;13.74;38.33
44079;BME280;29744;49.078;12.878;2024-02-28T13:37:27;96701.25;;;13.73;38.14
44079;BME280;29744;49.078;12.878;2024-02-28T13:42:27;96714.72;;;13.73;37.99
44079;BME280;29744;49.078;12.878;2024-02-28T13:47:28;96707.75;;;13.72;38.25
44079;BME280;29744;49.078;12.878;2024-02-28T13:52:28;96706.94;;;13.71;38.00
44079;BME280;29744;49.078;12.878;2024-02-28T13:57:29;96712.34;;;13.71;38.11
44079;BME280;29744;49.078;12.878;2024-02-28T14:02:29;96707.25;;;13.70;38.06
44079;BME280;29744;49.078;12.878;2024-02-28T14:07:29;96706.47;;;13.69;38.21
44079;BME280;29744;49.078;12.878;2024-02-28T14:12:30;96701.88;;;13.70;38.36
44079;BME280;29744;49.078;12.878;2024-02-28T14:17:31;96705.66;;;13.69;38.27
44079;BME280;29744;49.078;12.878;2024-02-28T14:22:32;96702.19;;;13.68;38.13
44079;BME280;29744;49.078;12.878;2024-02-28T14:27:32;96704.06;;;13.68;38.03
44079;BME280;29744;49.078;12.878;2024-02-28T14:32:35;96703.28;;;13.67;37.95
44079;BME280;29744;49.078;12.878;2024-02-28T14:37:38;96706.78;;;13.68;38.27
44079;BME280;29744;49.078;12.878;2024-02-28T14:42:41;96711.69;;;13.66;38.17
44079;BME280;29744;49.078;12.878;2024-02-28T14:47:42;96711.69;;;13.66;37.89
44079;BME280;29744;49.078;12.878;2024-02-28T14:52:43;96719.28;;;13.64;38.45
44079;BME280;29744;49.078;12.878;2024-02-28T14:57:43;96717.69;;;13.63;38.28
44079;BME280;29744;49.078;12.878;2024-02-28T15:02:44;96718.47;;;13.63;38.05
44079;BME280;29744;49.078;12.878;2024-02-28T15:07:45;96707.72;;;13.63;37.94
44079;BME280;29744;49.078;12.878;2024-02-28T15:12:45;96722.28;;;13.62;37.89
44079;BME280;29744;49.078;12.878;2024-02-28T15:17:45;96729.56;;;13.62;38.20
44079;BME280;29744;49.078;12.878;2024-02-28T15:22:46;96729.56;;;13.62;38.26
44079;BME280;29744;49.078;12.878;2024-02-28T15:27:46;96734.47;;;13.60;38.46
44079;BME280;29744;49.078;12.878;2024-02-28T15:32:46;96737.97;;;13.60;37.97
44079;BME280;29744;49.078;12.878;2024-02-28T15:37:47;96737.16;;;13.60;38.37
44079;BME280;29744;49.078;12.878;2024-02-28T15:42:47;96725.91;;;13.58;38.15
44079;BME280;29744;49.078;12.878;2024-02-28T15:47:47;96732.09;;;13.58;38.47
44079;BME280;29744;49.078;12.878;2024-02-28T15:52:48;96735.09;;;13.57;38.05
44079;BME280;29744;49.078;12.878;2024-02-28T15:57:48;96735.09;;;13.57;38.16
44079;BME280;29744;49.078;12.878;2024-02-28T16:02:48;96736.19;;;13.55;37.95
44079;BME280;29744;49.078;12.878;2024-02-28T16:07:49;96745.09;;;13.56;38.55
44079;BME280;29744;49.078;12.878;2024-02-28T16:12:49;96750.47;;;13.56;38.44
44079;BME280;29744;49.078;12.878;2024-02-28T16:17:50;96746.38;;;13.59;37.97
44079;BME280;29744;49.078;12.878;2024-02-28T16:22:52;96742.75;;;13.63;37.96
44079;BME280;29744;49.078;12.878;2024-02-28T16:27:52;96746.41;;;13.67;38.35
44079;BME280;29744;49.078;12.878;2024-02-28T16:32:53;96747.06;;;13.73;38.34
44079;BME280;29744;49.078;12.878;2024-02-28T16:37:53;96741.53;;;13.78;37.98
44079;BME280;29744;49.078;12.878;2024-02-28T16:42:53;96745.09;;;13.87;38.20
44079;BME280;29744;49.078;12.878;2024-02-28T16:47:54;96745.44;;;13.94;38.33
44079;BME280;29744;49.078;12.878;2024-02-28T16:52:54;96742.44;;;14.04;38.28
44079;BME280;29744;49.078;12.878;2024-02-28T16:57:55;96759.47;;;14.13;38.35
44079;BME280;29744;49.078;12.878;2024-02-28T17:02:55;96760.00;;;14.24;38.07
44079;BME280;29744;49.078;12.878;2024-02-28T17:07:55;96762.72;;;14.33;37.84
44079;BME280;29744;49.078;12.878;2024-02-28T17:12:56;96757.34;;;14.41;37.59
44079;BME280;29744;49.078;12.878;2024-02-28T17:17:56;96758.47;;;14.49;37.61
44079;BME280;29744;49.078;12.878;2024-02-28T17:22:56;96768.00;;;14.55;37.58
44079;BME280;29744;49.078;12.878;2024-02-28T17:27:57;96769.75;;;14.60;37.67
44079;BME280;29744;49.078;12.878;2024-02-28T17:32:57;96775.78;;;14.65;37.73
44079;BME280;29744;49.078;12.878;2024-02-28T17:37:58;96784.84;;;14.69;37.17
44079;BME280;29744;49.078;12.878;2024-02-28T17:42:58;96784.22;;;14.72;37.27
44079;BME280;29744;49.078;12.878;2024-02-28T17:47:58;96783.09;;;14.73;37.10
44079;BME280;29744;49.078;12.878;2024-02-28T17:52:59;96780.09;;;14.75;37.10
44079;BME280;29744;49.078;12.878;2024-02-28T17:57:59;96776.28;;;14.76;37.16
44079;BME280;29744;49.078;12.878;2024-02-28T18:02:59;96789.78;;;14.76;37.23
44079;BME280;29744;49.078;12.878;2024-02-28T18:08:00;96797.06;;;14.75;37.22
44079;BME280;29744;49.078;12.878;2024-02-28T18:13:00;96797.88;;;14.76;37.34
44079;BME280;29744;49.078;12.878;2024-02-28T18:18:01;96803.28;;;14.76;37.09
44079;BME280;29744;49.078;12.878;2024-02-28T18:23:02;96802.47;;;14.75;37.00
44079;BME280;29744;49.078;12.878;2024-02-28T18:28:02;96800.88;;;14.74;37.31
44079;BME280;29744;49.078;12.878;2024-02-28T18:33:04;96795.81;;;14.73;37.09
44079;BME280;29744;49.078;12.878;2024-02-28T18:38:05;96804.22;;;14.71;37.12
44079;BME280;29744;49.078;12.878;2024-02-28T18:43:05;96803.75;;;14.69;37.30
44079;BME280;29744;49.078;12.878;2024-02-28T18:48:05;96802.94;;;14.69;37.25
44079;BME280;29744;49.078;12.878;2024-02-28T18:53:07;96800.56;;;14.67;37.30
44079;BME280;29744;49.078;12.878;2024-02-28T18:58:07;96806.28;;;14.66;37.20
44079;BME280;29744;49.078;12.878;2024-02-28T19:03:09;96799.28;;;14.65;37.28
44079;BME280;29744;49.078;12.878;2024-02-28T19:08:09;96799.91;;;14.62;37.56
44079;BME280;29744;49.078;12.878;2024-02-28T19:13:10;96808.31;;;14.60;37.12
44079;BME280;29744;49.078;12.878;2024-02-28T19:18:10;96811.34;;;14.59;37.18
44079;BME280;29744;49.078;12.878;2024-02-28T19:23:11;96806.25;;;14.57;37.55
44079;BME280;29744;49.078;12.878;2024-02-28T19:28:13;96808.47;;;14.55;37.44
44079;BME280;29744;49.078;12.878;2024-02-28T19:33:14;96806.88;;;14.54;37.51
44079;BME280;29744;49.078;12.878;2024-02-28T19:38:14;96803.72;;;14.52;37.52
44079;BME280;29744;49.078;12.878;2024-02-28T19:43:14;96802.13;;;14.51;37.37
44079;BME280;29744;49.078;12.878;2024-02-28T19:48:15;96805.94;;;14.50;37.01
44079;BME280;29744;49.078;12.878;2024-02-28T19:53:15;96816.25;;;14.48;37.02
44079;BME280;29744;49.078;12.878;2024-02-28T19:58:15;96811.94;;;14.47;36.91
44079;BME280;29744;49.078;12.878;2024-02-28T20:03:16;96813.38;;;14.44;37.36
44079;BME280;29744;49.078;12.878;2024-02-28T20:08:16;96817.97;;;14.44;37.43
44079;BME280;29744;49.078;12.878;2024-02-28T20:13:16;96818.28;;;14.42;37.24
44079;BME280;29744;49.078;12.878;2024-02-28T20:18:17;96816.22;;;14.39;37.33
44079;BME280;29744;49.078;12.878;2024-02-28T20:23:17;96814.63;;;14.38;37.26
44079;BME280;29744;49.078;12.878;2024-02-28T20:28:18;96817.94;;;14.35;37.35
44079;BME280;29744;49.078;12.878;2024-02-28T20:33:18;96812.06;;;14.33;37.51
44079;BME280;29744;49.078;12.878;2024-02-28T20:38:18;96820.47;;;14.32;37.13
44079;BME280;29744;49.078;12.878;2024-02-28T20:43:20;96822.38;;;14.31;37.63
44079;BME280;29744;49.078;12.878;2024-02-28T20:48:21;96823.50;;;14.30;37.11
44079;BME280;29744;49.078;12.878;2024-02-28T20:53:21;96810.31;;;14.29;37.31
44079;BME280;29744;49.078;12.878;2024-02-28T20:58:23;96815.22;;;14.27;37.50
44079;BME280;29744;49.078;12.878;2024-02-28T21:03:24;96815.53;;;14.25;37.78
44079;BME280;29744;49.078;12.878;2024-02-28T21:08:24;96812.03;;;14.25;37.48
44079;BME280;29744;49.078;12.878;2024-02-28T21:13:25;96803.47;;;14.23;37.32
44079;BME280;29744;49.078;12.878;2024-02-28T21:18:26;96809.66;;;14.23;37.51
44079;BME280;29744;49.078;12.878;2024-02-28T21:23:26;96811.56;;;14.23;37.21
44079;BME280;29744;49.078;12.878;2024-02-28T21:28:26;96801.06;;;14.21;37.43
44079;BME280;29744;49.078;12.878;2024-02-28T21:33:27;96792.47;;;14.19;37.74
44079;BME280;29744;49.078;12.878;2024-02-28T21:38:27;96790.88;;;14.18;37.62
44079;BME280;29744;49.078;12.878;2024-02-28T21:43:29;96782.00;;;14.17;37.75
44079;BME280;29744;49.078;12.878;2024-02-28T21:48:29;96787.72;;;14.16;37.86
44079;BME280;29744;49.078;12.878;2024-02-28T21:53:30;96783.72;;;14.13;37.62
44079;BME280;29744;49.078;12.878;2024-02-28T21:58:30;96787.22;;;14.14;37.91
44079;BME280;29744;49.078;12.878;2024-02-28T22:03:30;96784.84;;;14.12;37.69
44079;BME280;29744;49.078;12.878;2024-02-28T22:08:30;96782.44;;;14.11;37.50
44079;BME280;29744;49.078;12.878;2024-02-28T22:13:31;96775.47;;;14.10;37.33
44079;BME280;29744;49.078;12.878;2024-02-28T22:18:31;96776.09;;;14.07;37.40
44079;BME280;29744;49.078;12.878;2024-02-28T22:23:31;96776.88;;;14.07;37.40
44079;BME280;29744;49.078;12.878;2024-02-28T22:28:32;96779.09;;;14.05;37.88
44079;BME280;29744;49.078;12.878;2024-02-28T22:33:32;96775.59;;;14.05;37.91
44079;BME280;29744;49.078;12.878;2024-02-28T22:38:33;96768.16;;;14.02;37.72
44079;BME280;29744;49.078;12.878;2024-02-28T22:43:33;96772.75;;;14.01;37.79
44079;BME280;29744;49.078;12.878;2024-02-28T22:48:34;96771.16;;;14.00;37.65
44079;BME280;29744;49.078;12.878;2024-02-28T22:53:34;96768.78;;;13.99;37.44
44079;BME280;29744;49.078;12.878;2024-02-28T22:58:35;96762.59;;;13.98;37.47
44079;BME280;29744;49.078;12.878;2024-02-28T23:03:35;96762.09;;;13.96;37.32
44079;BME280;29744;49.078;12.878;2024-02-28T23:08:36;96750.50;;;13.96;37.82
44079;BME280;29744;49.078;12.878;2024-02-28T23:13:36;96744.63;;;13.94;38.09
44079;BME280;29744;49.078;12.878;2024-02-28T23:18:39;96750.03;;;13.94;37.48
44079;BME280;29744;49.078;12.878;2024-02-28T23:23:40;96746.84;;;13.92;37.79
44079;BME280;29744;49.078;12.878;2024-02-28T23:28:40;96751.44;;;13.91;37.88
44079;BME280;29744;49.078;12.878;2024-02-28T23:33:40;96744.47;;;13.90;37.74
44079;BME280;29744;49.078;12.878;2024-02-28T23:38:41;96741.78;;;13.90;37.55
44079;BME280;29744;49.078;12.878;2024-02-28T23:43:41;96744.00;;;13.88;38.04
44079;BME280;29744;49.078;12.878;2024-02-28T23:48:42;96738.59;;;13.88;37.79
44079;BME280;29744;49.078;12.878;2024-02-28T23:53:42;96730.81;;;13.86;37.58
44079;BME280;29744;49.078;12.878;2024-02-28T23:58:42;96728.44;;;13.85;37.94
